- বাংলা English

****

METAR

 VGHS 270400Z 19008KT 3500 HZ SCT015 BKN100 31/25 Q1009 NOSIG=